createdAt,value
2022-08-03T00:00:57.231Z,71.39
2022-08-03T00:03:39.938Z,71.52
2022-08-03T00:06:22.795Z,71.63
2022-08-03T00:09:06.243Z,71.83
2022-08-03T00:11:49.152Z,71.83
2022-08-03T00:14:34.305Z,72.04
2022-08-03T00:17:16.991Z,72.03
2022-08-03T00:19:59.697Z,72.07
2022-08-03T00:22:42.549Z,72.33
2022-08-03T00:25:25.912Z,72.33
2022-08-03T00:28:08.886Z,72.50
2022-08-03T00:30:51.742Z,72.66
2022-08-03T00:33:58.982Z,72.78
2022-08-03T00:36:37.649Z,73.20
2022-08-03T00:39:20.304Z,73.15
2022-08-03T00:42:03.991Z,73.21
2022-08-03T00:44:46.933Z,73.35
2022-08-03T00:47:29.657Z,73.46
2022-08-03T00:50:12.644Z,73.70
2022-08-03T00:52:58.055Z,73.64
2022-08-03T00:55:41.781Z,73.54
2022-08-03T00:58:27.503Z,73.89
2022-08-03T01:01:11.711Z,74.24
2022-08-03T01:03:54.579Z,74.48
2022-08-03T01:06:45.753Z,74.59
2022-08-03T01:09:38.022Z,74.69
2022-08-03T01:12:28.588Z,74.72
2022-08-03T01:15:19.375Z,74.57
2022-08-03T01:18:09.486Z,74.88
2022-08-03T01:20:56.269Z,75.04
2022-08-03T01:23:56.416Z,75.50
2022-08-03T01:27:00.583Z,75.49
2022-08-03T01:30:01.696Z,75.55
2022-08-03T01:32:53.427Z,75.90
2022-08-03T01:35:48.372Z,75.94
2022-08-03T01:38:35.705Z,76.19
2022-08-03T01:41:29.593Z,76.66
2022-08-03T01:44:29.571Z,76.47
2022-08-03T01:47:15.165Z,76.89
2022-08-03T01:50:02.086Z,77.05
2022-08-03T01:52:47.740Z,77.07
2022-08-03T01:55:32.653Z,77.39
2022-08-03T01:58:16.917Z,77.65
2022-08-03T02:01:02.364Z,78.09
2022-08-03T02:04:00.263Z,78.27
2022-08-03T02:07:02.540Z,78.34
2022-08-03T02:09:51.136Z,78.57
2022-08-03T02:12:36.864Z,78.53
2022-08-03T02:15:20.054Z,78.71
2022-08-03T02:18:05.774Z,78.78
2022-08-03T02:20:49.860Z,78.87
2022-08-03T02:23:32.720Z,78.94
2022-08-03T02:26:20.074Z,79.04
2022-08-03T02:29:11.064Z,79.34
2022-08-03T02:31:57.678Z,79.80
2022-08-03T02:34:44.880Z,79.69
2022-08-03T02:37:32.095Z,80.26
2022-08-03T02:40:17.720Z,80.15
2022-08-03T02:43:05.051Z,80.17
2022-08-03T02:45:51.139Z,80.47
2022-08-03T02:48:34.309Z,80.41
2022-08-03T02:51:20.927Z,80.51
2022-08-03T02:54:06.022Z,80.49
2022-08-03T02:56:50.043Z,80.83
2022-08-03T02:59:33.377Z,80.80
2022-08-03T03:02:18.127Z,80.95
2022-08-03T03:05:52.162Z,80.97
2022-08-03T03:08:06.097Z,81.01
2022-08-03T03:11:02.440Z,81.09
2022-08-03T03:13:46.260Z,80.90
2022-08-03T03:16:31.126Z,80.92
2022-08-03T03:19:15.534Z,81.28
2022-08-03T03:22:00.768Z,81.02
2022-08-03T03:24:45.349Z,80.65
2022-08-03T03:27:28.841Z,80.74
2022-08-03T03:30:14.443Z,80.84
2022-08-03T03:32:58.488Z,80.87
2022-08-03T03:35:42.858Z,80.90
2022-08-03T03:38:25.822Z,80.90
2022-08-03T03:41:09.572Z,80.77
2022-08-03T03:43:52.536Z,80.66
2022-08-03T03:46:35.365Z,80.81
2022-08-03T03:49:18.610Z,80.94
2022-08-03T03:52:01.429Z,80.82
2022-08-03T03:54:45.893Z,80.96
2022-08-03T03:57:29.070Z,81.12
2022-08-03T04:00:15.572Z,80.93
2022-08-03T04:02:58.447Z,81.16
2022-08-03T04:05:59.804Z,81.19
2022-08-03T04:09:00.737Z,81.15
2022-08-03T04:11:51.987Z,81.32
2022-08-03T04:14:37.280Z,81.26
2022-08-03T04:17:21.781Z,81.15
2022-08-03T04:20:06.985Z,81.14
2022-08-03T04:22:51.170Z,81.04
2022-08-03T04:25:37.731Z,81.13
2022-08-03T04:28:31.088Z,81.27
2022-08-03T04:31:15.798Z,81.38
2022-08-03T04:33:59.201Z,81.23
2022-08-03T04:36:49.085Z,81.43
2022-08-03T04:39:32.709Z,81.41
2022-08-03T04:42:16.452Z,81.37
2022-08-03T04:45:01.628Z,81.27
2022-08-03T04:47:44.732Z,81.44
2022-08-03T04:50:28.289Z,81.47
2022-08-03T04:53:19.767Z,81.48
2022-08-03T04:56:06.023Z,81.71
2022-08-03T04:58:48.842Z,81.45
2022-08-03T05:01:34.043Z,81.53
2022-08-03T05:04:16.871Z,81.39
2022-08-03T05:06:59.708Z,81.27
2022-08-03T05:10:01.718Z,81.19
2022-08-03T05:12:48.444Z,81.17
2022-08-03T05:15:31.394Z,80.91
2022-08-03T05:18:14.562Z,80.84
2022-08-03T05:20:57.455Z,80.73
2022-08-03T05:23:40.888Z,80.21
2022-08-03T05:26:23.667Z,79.04
2022-08-03T05:29:06.386Z,78.81
2022-08-03T05:31:49.235Z,78.27
2022-08-03T05:34:32.080Z,77.30
2022-08-03T05:37:14.756Z,76.65
2022-08-03T05:39:57.465Z,75.52
2022-08-03T05:42:40.161Z,74.75
2022-08-03T05:45:28.141Z,74.40
2022-08-03T05:48:11.462Z,74.08
2022-08-03T05:50:54.373Z,73.22
2022-08-03T05:53:37.831Z,72.98
2022-08-03T05:56:24.020Z,73.06
2022-08-03T05:59:35.765Z,72.47
2022-08-03T06:02:16.494Z,72.30
2022-08-03T06:04:59.518Z,72.16
2022-08-03T06:07:42.350Z,71.80
2022-08-03T06:10:34.410Z,70.95
2022-08-03T06:13:21.337Z,69.70
2022-08-03T06:16:04.925Z,68.71
2022-08-03T06:18:47.634Z,67.09
2022-08-03T06:21:30.337Z,67.28
2022-08-03T06:24:13.913Z,65.79
2022-08-03T06:26:58.394Z,64.63
2022-08-03T06:29:41.099Z,62.47
2022-08-03T06:32:23.912Z,62.06
2022-08-03T06:35:08.321Z,61.72
2022-08-03T06:37:51.604Z,60.34
2022-08-03T06:40:39.351Z,58.80
2022-08-03T06:43:22.174Z,58.43
2022-08-03T06:46:05.653Z,58.25
2022-08-03T06:48:48.669Z,57.52
2022-08-03T06:52:05.249Z,55.76
2022-08-03T06:54:35.876Z,55.22
2022-08-03T06:57:18.843Z,55.82
2022-08-03T07:00:08.852Z,54.50
2022-08-03T07:02:58.454Z,53.41
2022-08-03T07:05:42.985Z,51.91
2022-08-03T07:08:33.639Z,52.13
2022-08-03T07:11:17.610Z,50.20
2022-08-03T07:14:00.703Z,50.68
2022-08-03T07:16:45.305Z,51.44
2022-08-03T07:19:28.184Z,50.61
2022-08-03T07:22:11.231Z,50.23
2022-08-03T07:24:54.188Z,49.86
2022-08-03T07:27:37.760Z,47.16
2022-08-03T07:30:20.532Z,47.48
2022-08-03T07:33:03.323Z,46.68
2022-08-03T07:35:49.045Z,46.02
2022-08-03T07:38:31.984Z,46.12
2022-08-03T07:41:14.692Z,45.86
2022-08-03T07:43:57.466Z,45.89
2022-08-03T07:46:47.256Z,45.40
2022-08-03T07:49:33.018Z,45.27
2022-08-03T07:52:36.787Z,44.74
2022-08-03T07:55:21.534Z,43.92
2022-08-03T07:58:09.350Z,44.03
2022-08-03T08:00:52.847Z,42.24
2022-08-03T08:03:49.877Z,42.40
2022-08-03T08:06:35.405Z,42.22
2022-08-03T08:09:18.354Z,42.14
2022-08-03T08:12:01.043Z,41.55
2022-08-03T08:14:46.023Z,41.99
2022-08-03T08:17:28.834Z,42.42
2022-08-03T08:20:15.476Z,42.09
2022-08-03T08:23:03.573Z,41.26
2022-08-03T08:26:06.208Z,40.23
2022-08-03T08:28:49.971Z,40.47
2022-08-03T08:31:33.691Z,40.25
2022-08-03T08:34:16.455Z,40.03
2022-08-03T08:36:59.129Z,40.28
2022-08-03T08:39:41.883Z,39.43
2022-08-03T08:42:24.812Z,39.39
2022-08-03T08:45:11.194Z,40.61
2022-08-03T08:48:00.409Z,37.45
2022-08-03T08:50:46.048Z,37.70
2022-08-03T08:53:32.147Z,37.98
2022-08-03T08:56:16.718Z,38.31
2022-08-03T08:59:02.212Z,38.09
2022-08-03T09:01:46.531Z,37.41
2022-08-03T09:04:30.585Z,36.62
2022-08-03T09:07:20.639Z,37.35
2022-08-03T09:10:12.049Z,36.51
2022-08-03T09:12:56.121Z,36.85
2022-08-03T09:15:38.939Z,36.35
2022-08-03T09:18:30.518Z,36.31
2022-08-03T09:21:31.234Z,36.29
2022-08-03T09:24:40.593Z,36.04
2022-08-03T09:27:23.980Z,35.51
2022-08-03T09:30:33.125Z,34.89
2022-08-03T09:33:16.913Z,34.63
2022-08-03T09:35:59.739Z,35.56
2022-08-03T09:38:43.313Z,35.47
2022-08-03T09:41:26.066Z,34.29
2022-08-03T09:44:09.015Z,34.26
2022-08-03T09:47:09.344Z,34.16
2022-08-03T09:50:01.273Z,34.36
2022-08-03T09:52:49.912Z,35.27
2022-08-03T09:56:35.041Z,34.48
2022-08-03T09:58:46.383Z,33.07
2022-08-03T10:01:34.531Z,32.50
2022-08-03T10:04:19.755Z,32.37
2022-08-03T10:07:03.261Z,32.61
2022-08-03T10:09:54.808Z,32.26
2022-08-03T10:12:38.618Z,33.23
2022-08-03T10:16:23.118Z,34.36
2022-08-03T10:18:26.782Z,33.87
2022-08-03T10:21:16.466Z,32.39
2022-08-03T10:24:01.894Z,32.29
2022-08-03T10:26:49.688Z,32.14
2022-08-03T10:29:39.742Z,31.05
2022-08-03T10:32:28.587Z,31.14
2022-08-03T10:35:20.817Z,30.07
2022-08-03T10:38:09.395Z,31.16
2022-08-03T10:40:58.962Z,31.79
2022-08-03T10:43:49.953Z,30.96
2022-08-03T10:46:35.386Z,30.00
2022-08-03T10:49:32.829Z,28.05
2022-08-03T10:52:31.834Z,28.19
2022-08-03T10:55:54.406Z,27.58
2022-08-03T10:58:53.255Z,27.52
2022-08-03T11:01:58.717Z,27.34
2022-08-03T11:04:44.207Z,27.20
2022-08-03T11:07:26.448Z,25.98
2022-08-03T11:10:32.153Z,26.14
2022-08-03T11:13:17.750Z,26.04
2022-08-03T11:16:06.554Z,26.27
2022-08-03T11:18:58.676Z,27.07
2022-08-03T11:21:57.617Z,26.48
2022-08-03T11:25:02.155Z,26.22
2022-08-03T11:27:45.265Z,25.07
2022-08-03T11:30:29.217Z,23.60
2022-08-03T11:33:30.168Z,23.84
2022-08-03T11:36:15.840Z,23.24
2022-08-03T11:39:17.085Z,23.43
2022-08-03T11:41:59.979Z,24.02
2022-08-03T11:44:47.521Z,24.11
2022-08-03T11:47:30.621Z,24.69
2022-08-03T11:50:13.477Z,22.77
2022-08-03T11:52:56.309Z,23.08
2022-08-03T11:55:41.456Z,24.50
2022-08-03T11:59:01.689Z,24.33
2022-08-03T12:01:27.483Z,24.65
2022-08-03T12:04:11.072Z,24.18
2022-08-03T12:07:01.009Z,23.90
2022-08-03T12:09:43.739Z,25.65
2022-08-03T12:12:26.480Z,24.75
2022-08-03T12:15:11.278Z,25.48
2022-08-03T12:17:57.692Z,25.31
2022-08-03T12:20:41.290Z,24.91
2022-08-03T12:23:26.920Z,24.64
2022-08-03T12:26:10.538Z,23.87
2022-08-03T12:28:53.383Z,23.27
2022-08-03T12:31:36.746Z,22.16
2022-08-03T12:34:19.479Z,22.66
2022-08-03T12:37:21.754Z,23.84
2022-08-03T12:40:11.147Z,23.92
2022-08-03T12:42:55.649Z,23.05
2022-08-03T12:45:38.566Z,23.84
2022-08-03T12:48:21.296Z,24.21
2022-08-03T12:51:11.149Z,24.81
2022-08-03T12:53:55.063Z,24.63
2022-08-03T12:56:57.339Z,24.22
2022-08-03T12:59:42.213Z,25.11
2022-08-03T13:02:32.838Z,26.11
2022-08-03T13:05:15.862Z,27.07
2022-08-03T13:07:59.283Z,25.62
2022-08-03T13:10:42.575Z,25.48
2022-08-03T13:13:39.627Z,25.73
2022-08-03T13:16:23.910Z,26.68
2022-08-03T13:19:10.045Z,26.23
2022-08-03T13:22:03.721Z,25.53
2022-08-03T13:24:49.316Z,26.07
2022-08-03T13:28:03.619Z,26.38
2022-08-03T13:30:37.430Z,26.22
2022-08-03T13:33:20.160Z,26.66
2022-08-03T13:36:03.199Z,27.13
2022-08-03T13:38:46.192Z,26.97
2022-08-03T13:41:31.361Z,28.62
2022-08-03T13:44:30.071Z,28.82
2022-08-03T13:47:13.019Z,29.07
2022-08-03T13:50:01.104Z,28.54
2022-08-03T13:52:45.711Z,28.03
2022-08-03T13:55:28.925Z,28.32
2022-08-03T13:58:12.271Z,28.59
2022-08-03T14:00:55.148Z,28.09
2022-08-03T14:03:37.926Z,28.75
2022-08-03T14:06:21.137Z,29.18
2022-08-03T14:09:04.373Z,30.03
2022-08-03T14:12:08.438Z,29.15
2022-08-03T14:14:52.098Z,29.73
2022-08-03T14:17:42.103Z,29.98
2022-08-03T14:20:36.214Z,30.04
2022-08-03T14:23:28.223Z,29.64
2022-08-03T14:26:11.432Z,29.22
2022-08-03T14:28:55.183Z,29.20
2022-08-03T14:32:10.995Z,30.14
2022-08-03T14:34:41.122Z,30.70
2022-08-03T14:37:23.947Z,30.50
2022-08-03T14:40:08.903Z,29.67
2022-08-03T14:42:50.975Z,29.49
2022-08-03T14:45:34.071Z,30.06
2022-08-03T14:50:34.712Z,30.59
2022-08-03T14:51:21.906Z,30.82
2022-08-03T14:54:05.468Z,30.40
2022-08-03T14:56:48.152Z,30.07
2022-08-03T14:59:55.453Z,30.22
2022-08-03T15:02:33.653Z,30.77
2022-08-03T15:05:16.536Z,30.43
2022-08-03T15:07:59.330Z,30.37
2022-08-03T15:10:45.401Z,29.93
2022-08-03T15:13:28.565Z,30.36
2022-08-03T15:16:13.680Z,30.39
2022-08-03T15:18:55.600Z,30.50
2022-08-03T15:21:46.671Z,31.37
2022-08-03T15:24:30.322Z,31.29
2022-08-03T15:27:13.237Z,31.40
2022-08-03T15:30:07.648Z,30.74
2022-08-03T15:32:52.608Z,31.06
2022-08-03T15:35:35.761Z,31.25
2022-08-03T15:38:18.870Z,31.93
2022-08-03T15:41:01.998Z,31.45
2022-08-03T15:43:47.802Z,31.42
2022-08-03T15:46:30.837Z,32.03
2022-08-03T15:49:13.873Z,31.65
2022-08-03T15:51:56.670Z,31.89
2022-08-03T15:54:39.476Z,31.57
2022-08-03T15:57:22.659Z,31.87
2022-08-03T16:00:08.896Z,32.23
2022-08-03T16:02:56.776Z,32.29
2022-08-03T16:05:39.831Z,32.22
2022-08-03T16:08:22.875Z,32.46
2022-08-03T16:11:08.478Z,31.63
2022-08-03T16:14:13.402Z,31.58
2022-08-03T16:16:54.075Z,31.32
2022-08-03T16:19:36.911Z,31.09
2022-08-03T16:22:22.173Z,31.55
2022-08-03T16:25:15.952Z,31.89
2022-08-03T16:28:07.788Z,32.22
2022-08-03T16:30:55.772Z,32.48
2022-08-03T16:33:39.550Z,32.06
2022-08-03T16:36:22.547Z,32.46
2022-08-03T16:39:05.626Z,32.61
2022-08-03T16:41:54.348Z,33.00
2022-08-03T16:44:44.025Z,32.89
2022-08-03T16:47:27.045Z,33.22
2022-08-03T16:50:15.836Z,33.47
2022-08-03T16:53:05.177Z,33.66
2022-08-03T16:55:54.184Z,33.70
2022-08-03T16:58:42.135Z,33.69
2022-08-03T17:01:35.755Z,33.82
2022-08-03T17:04:20.529Z,34.15
2022-08-03T17:07:04.532Z,34.11
2022-08-03T17:09:48.495Z,34.19
2022-08-03T17:12:32.238Z,34.44
2022-08-03T17:15:15.311Z,34.53
2022-08-03T17:18:07.498Z,34.64
2022-08-03T17:20:51.974Z,34.77
2022-08-03T17:23:44.209Z,35.09
2022-08-03T17:26:30.490Z,35.12
2022-08-03T17:29:19.677Z,35.19
2022-08-03T17:32:10.099Z,35.25
2022-08-03T17:34:55.182Z,35.18
2022-08-03T17:37:58.363Z,35.28
2022-08-03T17:40:48.110Z,35.49
2022-08-03T17:44:13.784Z,35.61
2022-08-03T17:46:38.112Z,35.74
2022-08-03T17:49:25.576Z,36.00
2022-08-03T17:52:17.644Z,36.23
2022-08-03T17:55:56.320Z,36.51
2022-08-03T17:58:20.899Z,36.84
2022-08-03T18:02:06.217Z,37.12
2022-08-03T18:04:30.339Z,37.15
2022-08-03T18:07:18.268Z,37.65
2022-08-03T18:10:06.331Z,37.96
2022-08-03T18:13:10.399Z,38.47
2022-08-03T18:16:00.483Z,38.65
2022-08-03T18:18:48.663Z,39.01
2022-08-03T18:22:02.184Z,39.36
2022-08-03T18:24:37.900Z,39.46
2022-08-03T18:27:22.680Z,39.86
2022-08-03T18:30:08.377Z,40.17
2022-08-03T18:33:00.643Z,40.25
2022-08-03T18:35:59.910Z,40.64
2022-08-03T18:38:43.727Z,40.88
2022-08-03T18:41:32.113Z,41.22
2022-08-03T18:44:37.579Z,41.18
2022-08-03T18:47:52.483Z,41.67
2022-08-03T18:50:40.558Z,41.93
2022-08-03T18:54:01.890Z,42.01
2022-08-03T18:56:44.085Z,42.42
2022-08-03T18:59:38.916Z,42.74
2022-08-03T19:02:29.193Z,42.96
2022-08-03T19:05:16.279Z,43.09
2022-08-03T19:08:04.274Z,43.30
2022-08-03T19:10:57.866Z,43.43
2022-08-03T19:13:50.303Z,43.73
2022-08-03T19:16:39.321Z,43.94
2022-08-03T19:19:44.878Z,44.14
2022-08-03T19:22:28.797Z,44.44
2022-08-03T19:25:13.665Z,44.48
2022-08-03T19:28:00.352Z,44.76
2022-08-03T19:30:53.709Z,45.00
2022-08-03T19:33:55.675Z,45.21
2022-08-03T19:36:43.783Z,45.42
2022-08-03T19:39:27.075Z,45.65
2022-08-03T19:42:20.052Z,45.87
2022-08-03T19:45:13.953Z,46.05
2022-08-03T19:48:09.723Z,46.19
2022-08-03T19:50:56.965Z,46.41
2022-08-03T19:53:46.473Z,46.55
2022-08-03T19:56:31.147Z,46.77
2022-08-03T19:59:15.333Z,46.87
2022-08-03T20:01:58.266Z,47.11
2022-08-03T20:04:41.502Z,47.47
2022-08-03T20:07:25.168Z,47.63
2022-08-03T20:10:10.054Z,47.91
2022-08-03T20:12:53.876Z,47.90
2022-08-03T20:15:41.382Z,48.19
2022-08-03T20:18:24.696Z,48.58
2022-08-03T20:21:15.138Z,48.67
2022-08-03T20:24:24.298Z,48.93
2022-08-03T20:27:10.460Z,49.08
2022-08-03T20:30:07.175Z,49.25
2022-08-03T20:32:51.793Z,49.40
2022-08-03T20:35:35.598Z,49.47
2022-08-03T20:38:19.642Z,49.45
2022-08-03T20:41:03.811Z,49.63
2022-08-03T20:43:48.322Z,49.80
2022-08-03T20:46:46.433Z,49.90
2022-08-03T20:49:45.651Z,50.19
2022-08-03T20:52:31.262Z,50.45
2022-08-03T20:55:16.093Z,50.63
2022-08-03T20:58:00.035Z,50.61
2022-08-03T21:00:43.479Z,50.92
2022-08-03T21:03:41.053Z,51.11
2022-08-03T21:06:36.845Z,51.16
2022-08-03T21:09:23.949Z,51.52
2022-08-03T21:12:22.244Z,52.19
2022-08-03T21:16:02.237Z,52.58
2022-08-03T21:18:17.099Z,53.11
2022-08-03T21:21:00.818Z,53.38
2022-08-03T21:23:48.300Z,53.57
2022-08-03T21:26:37.548Z,53.67
2022-08-03T21:29:24.004Z,53.92
2022-08-03T21:32:07.995Z,54.13
2022-08-03T21:34:51.923Z,54.48
2022-08-03T21:37:35.014Z,54.70
2022-08-03T21:40:17.887Z,55.01
2022-08-03T21:43:00.882Z,55.22
2022-08-03T21:45:49.753Z,55.60
2022-08-03T21:48:36.590Z,55.87
2022-08-03T21:51:23.464Z,55.89
2022-08-03T21:54:07.241Z,56.01
2022-08-03T21:56:54.537Z,56.04
2022-08-03T21:59:42.741Z,56.17
2022-08-03T22:02:31.356Z,56.31
2022-08-03T22:05:17.025Z,56.37
2022-08-03T22:08:00.567Z,56.35
2022-08-03T22:10:46.006Z,56.32
2022-08-03T22:13:43.555Z,56.25
2022-08-03T22:16:28.260Z,56.28
2022-08-03T22:19:13.437Z,56.20
2022-08-03T22:22:03.867Z,56.19
2022-08-03T22:24:48.272Z,56.33
2022-08-03T22:27:32.594Z,56.41
2022-08-03T22:30:18.131Z,56.34
2022-08-03T22:33:05.052Z,56.45
2022-08-03T22:35:58.587Z,56.57
2022-08-03T22:38:42.018Z,56.71
2022-08-03T22:41:28.805Z,56.88
2022-08-03T22:44:15.448Z,56.99
2022-08-03T22:46:59.193Z,57.16
2022-08-03T22:49:43.298Z,57.32
2022-08-03T22:52:28.145Z,57.44
2022-08-03T22:55:18.873Z,57.48
2022-08-03T22:58:07.888Z,57.58
2022-08-03T23:00:54.236Z,57.82
2022-08-03T23:04:01.221Z,57.95
2022-08-03T23:06:50.162Z,58.08
2022-08-03T23:09:33.714Z,58.30
2022-08-03T23:12:19.804Z,58.35
2022-08-03T23:15:06.146Z,58.48
2022-08-03T23:17:57.369Z,58.73
2022-08-03T23:20:42.226Z,58.95
2022-08-03T23:23:30.596Z,59.09
2022-08-03T23:26:29.580Z,59.30
2022-08-03T23:29:15.940Z,59.52
2022-08-03T23:32:00.773Z,59.64
2022-08-03T23:35:02.975Z,59.76
2022-08-03T23:38:04.619Z,59.80
2022-08-03T23:40:51.225Z,60.01
2022-08-03T23:43:52.077Z,60.09
2022-08-03T23:46:38.641Z,60.23
2022-08-03T23:49:24.227Z,60.38
2022-08-03T23:52:12.696Z,60.58
2022-08-03T23:55:16.201Z,60.68
2022-08-03T23:58:05.057Z,60.61
